createdAt,value
2022-12-19T00:01:52.451Z,96.78
2022-12-19T00:04:21.237Z,95.69
2022-12-19T00:06:48.227Z,97.58
2022-12-19T00:09:16.346Z,96.17
2022-12-19T00:11:43.444Z,95.87
2022-12-19T00:14:11.836Z,95.61
2022-12-19T00:16:38.819Z,95.54
2022-12-19T00:19:06.484Z,93.83
2022-12-19T00:21:35.455Z,94.78
2022-12-19T00:24:10.463Z,96.01
2022-12-19T00:26:49.740Z,94.72
2022-12-19T00:29:17.259Z,96.31
2022-12-19T00:31:45.775Z,96.54
2022-12-19T00:34:15.101Z,96.05
2022-12-19T00:36:42.193Z,96.62
2022-12-19T00:39:10.620Z,97.19
2022-12-19T00:41:41.808Z,97.27
2022-12-19T00:44:14.451Z,97.38
2022-12-19T00:46:42.111Z,97.28
2022-12-19T00:49:09.267Z,94.91
2022-12-19T00:51:37.399Z,96.87
2022-12-19T00:54:07.331Z,96.65
2022-12-19T00:56:37.893Z,97.30
2022-12-19T00:59:07.354Z,96.88
2022-12-19T01:01:38.519Z,96.92
2022-12-19T01:06:54.240Z,97.08
2022-12-19T01:09:25.176Z,98.05
2022-12-19T01:12:10.815Z,98.58
2022-12-19T01:14:37.794Z,98.11
2022-12-19T01:17:04.754Z,96.14
2022-12-19T01:19:31.637Z,96.70
2022-12-19T01:21:58.652Z,97.85
2022-12-19T01:24:26.030Z,97.12
2022-12-19T01:26:53.043Z,97.14
2022-12-19T01:29:20.140Z,96.67
2022-12-19T01:31:48.015Z,97.44
2022-12-19T01:34:15.028Z,96.90
2022-12-19T01:36:42.021Z,97.65
2022-12-19T01:39:08.985Z,96.71
2022-12-19T01:41:36.014Z,97.42
2022-12-19T01:44:06.026Z,96.86
2022-12-19T01:46:40.184Z,97.15
2022-12-19T01:49:15.049Z,96.28
2022-12-19T01:51:47.151Z,96.95
2022-12-19T01:54:17.944Z,98.31
2022-12-19T01:56:49.936Z,98.64
2022-12-19T01:59:25.410Z,97.44
2022-12-19T02:01:59.043Z,97.12
2022-12-19T02:04:31.903Z,96.64
2022-12-19T02:07:15.414Z,97.23
2022-12-19T02:09:52.984Z,96.39
2022-12-19T02:12:26.231Z,98.56
2022-12-19T02:15:02.641Z,98.88
2022-12-19T02:18:03.233Z,98.32
2022-12-19T02:20:36.609Z,98.03
2022-12-19T02:23:09.613Z,97.80
2022-12-19T02:26:05.656Z,98.87
2022-12-19T02:28:33.617Z,96.85
2022-12-19T02:31:17.460Z,97.01
2022-12-19T02:34:05.401Z,98.04
2022-12-19T02:36:47.008Z,96.59
2022-12-19T02:39:22.641Z,96.46
2022-12-19T02:41:57.644Z,96.92
2022-12-19T02:44:32.097Z,97.61
2022-12-19T02:47:03.256Z,98.12
2022-12-19T02:49:36.959Z,99.98
2022-12-19T02:52:19.090Z,98.45
2022-12-19T02:54:53.561Z,96.87
2022-12-19T02:57:28.777Z,95.88
2022-12-19T02:59:55.626Z,98.24
2022-12-19T03:02:44.017Z,97.94
2022-12-19T03:05:49.858Z,97.38
2022-12-19T03:09:01.503Z,97.35
2022-12-19T03:11:35.407Z,96.27
2022-12-19T03:14:21.572Z,96.32
2022-12-19T03:16:49.687Z,95.92
2022-12-19T03:19:17.055Z,96.58
2022-12-19T03:21:47.866Z,96.02
2022-12-19T03:24:16.706Z,96.30
2022-12-19T03:27:04.613Z,95.90
2022-12-19T03:29:52.706Z,95.98
2022-12-19T03:32:22.649Z,97.88
2022-12-19T03:34:57.175Z,97.14
2022-12-19T03:37:28.783Z,96.38
2022-12-19T03:40:00.954Z,95.70
2022-12-19T03:42:48.962Z,97.30
2022-12-19T03:45:24.146Z,97.54
2022-12-19T03:47:58.776Z,94.97
2022-12-19T03:50:34.478Z,94.22
2022-12-19T03:53:19.404Z,94.88
2022-12-19T03:55:58.166Z,96.93
2022-12-19T03:58:38.277Z,96.81
2022-12-19T04:01:14.813Z,96.19
2022-12-19T04:03:42.233Z,96.52
2022-12-19T04:06:10.049Z,97.23
2022-12-19T04:08:37.695Z,97.86
2022-12-19T04:11:11.320Z,94.06
2022-12-19T04:13:43.413Z,94.00
2022-12-19T04:16:25.245Z,94.23
2022-12-19T04:19:01.083Z,92.59
2022-12-19T04:21:35.247Z,95.05
2022-12-19T04:24:11.579Z,95.33
2022-12-19T04:26:39.286Z,95.59
2022-12-19T04:29:07.222Z,95.00
2022-12-19T04:31:36.179Z,92.52
2022-12-19T04:34:03.308Z,93.42
2022-12-19T04:36:30.426Z,95.95
2022-12-19T04:38:57.856Z,96.73
2022-12-19T04:41:24.800Z,96.66
2022-12-19T04:43:51.813Z,97.02
2022-12-19T04:46:18.725Z,96.72
2022-12-19T04:48:45.638Z,98.18
2022-12-19T04:51:12.955Z,99.46
2022-12-19T04:53:39.884Z,98.99
2022-12-19T04:56:07.480Z,98.07
2022-12-19T04:58:34.663Z,97.75
2022-12-19T05:01:07.129Z,98.18
2022-12-19T05:03:35.149Z,97.27
2022-12-19T05:06:10.571Z,97.73
2022-12-19T05:08:38.891Z,97.56
2022-12-19T05:11:06.903Z,97.97
2022-12-19T05:13:33.920Z,98.06
2022-12-19T05:16:03.800Z,98.72
2022-12-19T05:18:31.213Z,98.52
2022-12-19T05:20:58.222Z,97.82
2022-12-19T05:23:25.292Z,97.23
2022-12-19T05:25:52.400Z,97.25
2022-12-19T05:28:19.806Z,98.89
2022-12-19T05:30:52.032Z,99.35
2022-12-19T05:33:19.603Z,99.08
2022-12-19T05:35:48.037Z,98.43
2022-12-19T05:38:15.054Z,97.17
2022-12-19T05:40:43.264Z,98.31
2022-12-19T05:43:10.168Z,96.75
2022-12-19T05:45:37.115Z,96.87
2022-12-19T05:48:05.032Z,96.73
2022-12-19T05:50:32.092Z,97.50
2022-12-19T05:53:09.206Z,100.00
2022-12-19T05:55:36.130Z,100.00
2022-12-19T05:58:03.035Z,100.00
2022-12-19T06:00:29.944Z,100.00
2022-12-19T06:02:56.971Z,100.00
2022-12-19T06:05:24.024Z,100.00
2022-12-19T06:07:50.920Z,100.00
2022-12-19T06:10:17.885Z,100.00
2022-12-19T06:12:44.800Z,100.00
2022-12-19T06:15:12.129Z,100.00
2022-12-19T06:17:39.171Z,100.00
2022-12-19T06:20:07.179Z,100.00
2022-12-19T06:22:35.160Z,99.76
2022-12-19T06:25:06.017Z,100.00
2022-12-19T06:27:33.921Z,100.00
2022-12-19T06:30:00.823Z,99.75
2022-12-19T06:32:27.823Z,99.39
2022-12-19T06:35:04.213Z,98.13
2022-12-19T06:37:31.689Z,97.57
2022-12-19T06:39:58.566Z,98.27
2022-12-19T06:42:25.690Z,98.09
2022-12-19T06:44:55.960Z,98.25
2022-12-19T06:47:24.409Z,96.96
2022-12-19T06:49:51.882Z,98.25
2022-12-19T06:52:18.936Z,100.00
2022-12-19T06:54:45.923Z,98.28
2022-12-19T06:57:12.973Z,100.00
2022-12-19T06:59:39.886Z,99.64
2022-12-19T07:02:17.183Z,100.00
2022-12-19T07:04:48.965Z,97.86
2022-12-19T07:07:16.605Z,97.50
2022-12-19T07:09:43.626Z,98.73
2022-12-19T07:12:10.707Z,97.49
2022-12-19T07:14:37.771Z,98.10
2022-12-19T07:17:05.167Z,97.55
2022-12-19T07:19:33.432Z,99.83
2022-12-19T07:22:02.657Z,100.00
2022-12-19T07:24:30.663Z,99.38
2022-12-19T07:26:58.061Z,100.00
2022-12-19T07:29:25.549Z,100.00
2022-12-19T07:31:52.660Z,100.00
2022-12-19T07:34:19.766Z,100.00
2022-12-19T07:36:46.774Z,100.00
2022-12-19T07:39:13.683Z,100.00
2022-12-19T07:41:40.602Z,100.00
2022-12-19T07:44:08.189Z,98.79
2022-12-19T07:46:35.573Z,98.66
2022-12-19T07:49:02.876Z,100.00
2022-12-19T07:51:29.898Z,100.00
2022-12-19T07:53:56.794Z,99.94
2022-12-19T07:56:23.644Z,99.89
2022-12-19T07:58:50.837Z,100.00
2022-12-19T08:01:18.135Z,98.90
2022-12-19T08:03:45.188Z,97.16
2022-12-19T08:06:12.219Z,97.99
2022-12-19T08:08:39.073Z,98.99
2022-12-19T08:11:12.439Z,100.00
2022-12-19T08:13:44.762Z,100.00
2022-12-19T08:16:13.587Z,100.00
2022-12-19T08:18:40.707Z,100.00
2022-12-19T08:21:09.359Z,100.00
2022-12-19T08:23:36.701Z,100.00
2022-12-19T08:26:06.730Z,100.00
2022-12-19T08:28:35.595Z,100.00
2022-12-19T08:31:24.494Z,100.00
2022-12-19T08:33:53.700Z,100.00
2022-12-19T08:36:21.506Z,100.00
2022-12-19T08:38:49.521Z,100.00
2022-12-19T08:41:17.790Z,100.00
2022-12-19T08:43:53.205Z,100.00
2022-12-19T08:46:21.472Z,98.96
2022-12-19T08:48:48.727Z,99.04
2022-12-19T08:51:16.954Z,100.00
2022-12-19T08:53:45.255Z,100.00
2022-12-19T08:56:15.889Z,100.00
2022-12-19T08:58:42.990Z,100.00
2022-12-19T09:01:16.456Z,100.00
2022-12-19T09:04:18.181Z,100.00
2022-12-19T09:06:31.515Z,100.00
2022-12-19T09:08:59.959Z,100.00
2022-12-19T09:11:27.848Z,100.00
2022-12-19T09:13:57.211Z,100.00
2022-12-19T09:16:26.915Z,100.00
2022-12-19T09:18:57.099Z,100.00
2022-12-19T09:21:26.787Z,100.00
2022-12-19T09:23:56.141Z,100.00
2022-12-19T09:26:26.102Z,100.00
2022-12-19T09:28:54.570Z,100.00
2022-12-19T09:31:23.940Z,100.00
2022-12-19T09:33:51.505Z,100.00
2022-12-19T09:36:24.393Z,100.00
2022-12-19T09:38:54.747Z,100.00
2022-12-19T09:41:40.066Z,100.00
2022-12-19T09:44:30.548Z,100.00
2022-12-19T09:47:00.864Z,100.00
2022-12-19T09:49:41.724Z,100.00
2022-12-19T09:52:38.294Z,100.00
2022-12-19T09:55:20.858Z,100.00
2022-12-19T09:57:56.229Z,100.00
2022-12-19T10:00:23.995Z,100.00
2022-12-19T10:03:00.330Z,100.00
2022-12-19T10:07:07.007Z,100.00
2022-12-19T10:08:47.247Z,100.00
2022-12-19T10:12:38.829Z,100.00
2022-12-19T10:14:51.431Z,100.00
2022-12-19T10:17:55.142Z,100.00
2022-12-19T10:20:28.558Z,100.00
2022-12-19T10:23:07.551Z,100.00
2022-12-19T10:26:00.281Z,100.00
2022-12-19T10:28:34.877Z,100.00
2022-12-19T10:31:23.330Z,100.00
2022-12-19T10:33:59.376Z,100.00
2022-12-19T10:37:04.014Z,100.00
2022-12-19T10:39:26.288Z,100.00
2022-12-19T10:41:58.856Z,100.00
2022-12-19T10:44:30.679Z,100.00
2022-12-19T10:46:57.692Z,100.00
2022-12-19T10:49:28.397Z,100.00
2022-12-19T10:52:01.494Z,100.00
2022-12-19T10:54:39.676Z,100.00
2022-12-19T10:57:26.514Z,100.00
2022-12-19T11:00:04.863Z,100.00
2022-12-19T11:02:41.782Z,100.00
2022-12-19T11:05:29.260Z,100.00
2022-12-19T11:08:11.902Z,100.00
2022-12-19T11:11:55.026Z,100.00
2022-12-19T11:18:01.536Z,100.00
2022-12-19T11:23:28.398Z,100.00
2022-12-19T11:29:30.353Z,100.00
2022-12-19T11:29:40.502Z,100.00
2022-12-19T11:30:41.631Z,100.00
2022-12-19T11:30:48.004Z,100.00
2022-12-19T11:34:21.526Z,100.00
2022-12-19T11:36:52.157Z,100.00
2022-12-19T11:39:24.056Z,100.00
2022-12-19T11:42:26.941Z,100.00
2022-12-19T11:45:05.814Z,100.00
2022-12-19T11:47:51.981Z,100.00
2022-12-19T11:50:27.285Z,100.00
2022-12-19T11:53:09.318Z,100.00
2022-12-19T11:55:57.326Z,100.00
2022-12-19T11:58:26.959Z,100.00
2022-12-19T12:01:29.212Z,100.00
2022-12-19T12:04:20.276Z,100.00
2022-12-19T12:06:52.743Z,100.00
2022-12-19T12:15:02.597Z,100.00
2022-12-19T12:19:45.836Z,100.00
2022-12-19T12:31:00.652Z,100.00
2022-12-19T12:31:14.422Z,100.00
2022-12-19T12:31:30.806Z,100.00
2022-12-19T12:31:38.744Z,100.00
2022-12-19T12:32:05.788Z,100.00
2022-12-19T12:35:51.512Z,100.00
2022-12-19T12:35:54.205Z,100.00
2022-12-19T12:40:50.699Z,100.00
2022-12-19T12:43:42.673Z,100.00
2022-12-19T12:46:17.820Z,100.00
2022-12-19T12:49:06.514Z,100.00
2022-12-19T12:51:35.144Z,100.00
2022-12-19T12:54:07.602Z,100.00
2022-12-19T12:56:36.768Z,100.00
2022-12-19T12:59:17.890Z,100.00
2022-12-19T13:01:51.353Z,100.00
2022-12-19T13:04:33.937Z,100.00
2022-12-19T13:07:03.384Z,100.00
2022-12-19T13:09:34.602Z,100.00
2022-12-19T13:12:31.148Z,100.00
2022-12-19T13:15:31.904Z,100.00
2022-12-19T13:18:34.367Z,100.00
2022-12-19T13:21:03.841Z,100.00
2022-12-19T13:23:30.682Z,100.00
2022-12-19T13:25:57.846Z,100.00
2022-12-19T13:28:24.774Z,100.00
2022-12-19T13:31:19.173Z,100.00
2022-12-19T13:33:55.805Z,100.00
2022-12-19T13:40:02.471Z,100.00
2022-12-19T13:40:12.324Z,100.00
2022-12-19T13:43:21.346Z,100.00
2022-12-19T13:45:52.334Z,100.00
2022-12-19T13:48:30.463Z,100.00
2022-12-19T13:50:59.069Z,100.00
2022-12-19T13:53:28.223Z,100.00
2022-12-19T13:56:00.142Z,100.00
2022-12-19T13:58:34.037Z,100.00
2022-12-19T14:01:07.113Z,100.00
2022-12-19T14:03:43.481Z,100.00
2022-12-19T14:06:22.010Z,100.00
2022-12-19T14:09:58.588Z,100.00
2022-12-19T14:13:42.325Z,100.00
2022-12-19T14:14:58.028Z,100.00
2022-12-19T14:17:36.830Z,100.00
2022-12-19T14:22:03.705Z,100.00
2022-12-19T14:23:05.937Z,100.00
2022-12-19T14:28:14.292Z,100.00
2022-12-19T14:28:48.982Z,100.00
2022-12-19T14:31:20.988Z,100.00
2022-12-19T14:34:18.443Z,100.00
2022-12-19T14:36:40.193Z,100.00
2022-12-19T14:39:23.551Z,100.00
2022-12-19T14:42:32.980Z,100.00
2022-12-19T14:53:51.146Z,100.00
2022-12-19T14:54:04.971Z,100.00
2022-12-19T14:54:07.659Z,100.00
2022-12-19T14:57:50.745Z,100.00
2022-12-19T15:01:07.919Z,100.00
2022-12-19T15:03:31.141Z,100.00
2022-12-19T15:07:05.978Z,100.00
2022-12-19T15:11:03.269Z,100.00
2022-12-19T15:14:47.964Z,100.00
2022-12-19T15:15:19.736Z,100.00
2022-12-19T15:17:51.823Z,100.00
2022-12-19T15:20:19.521Z,100.00
2022-12-19T15:22:47.324Z,100.00
2022-12-19T15:25:43.983Z,100.00
2022-12-19T15:28:15.995Z,100.00
2022-12-19T15:30:47.967Z,100.00
2022-12-19T15:33:16.883Z,100.00
2022-12-19T15:35:45.137Z,100.00
2022-12-19T15:38:12.184Z,100.00
2022-12-19T15:40:42.764Z,100.00
2022-12-19T15:44:01.215Z,100.00
2022-12-19T15:46:12.132Z,100.00
2022-12-19T15:48:47.031Z,100.00
2022-12-19T15:51:14.851Z,100.00
2022-12-19T15:53:42.525Z,100.00
2022-12-19T15:56:30.637Z,100.00
2022-12-19T15:59:00.895Z,100.00
2022-12-19T16:01:28.870Z,100.00
2022-12-19T16:03:57.065Z,100.00
2022-12-19T16:06:24.161Z,100.00
2022-12-19T16:08:51.115Z,100.00
2022-12-19T16:11:24.172Z,100.00
2022-12-19T16:13:55.468Z,100.00
2022-12-19T16:16:22.788Z,100.00
2022-12-19T16:18:49.895Z,100.00
2022-12-19T16:21:27.458Z,100.00
2022-12-19T16:24:00.488Z,100.00
2022-12-19T16:26:37.335Z,100.00
2022-12-19T16:29:05.003Z,100.00
2022-12-19T16:31:32.178Z,100.00
2022-12-19T16:33:59.150Z,100.00
2022-12-19T16:36:26.416Z,100.00
2022-12-19T16:38:53.408Z,100.00
2022-12-19T16:41:25.073Z,100.00
2022-12-19T16:43:52.795Z,100.00
2022-12-19T16:46:23.950Z,100.00
2022-12-19T16:48:51.106Z,100.00
2022-12-19T16:51:23.623Z,100.00
2022-12-19T16:53:53.190Z,100.00
2022-12-19T16:56:38.709Z,100.00
2022-12-19T16:59:13.271Z,100.00
2022-12-19T17:01:41.269Z,100.00
2022-12-19T17:04:21.730Z,100.00
2022-12-19T17:06:49.954Z,100.00
2022-12-19T17:09:25.660Z,100.00
2022-12-19T17:12:00.967Z,100.00
2022-12-19T17:14:31.771Z,100.00
2022-12-19T17:16:59.517Z,100.00
2022-12-19T17:19:34.022Z,100.00
2022-12-19T17:22:00.951Z,100.00
2022-12-19T17:24:28.042Z,100.00
2022-12-19T17:26:54.939Z,100.00
2022-12-19T17:29:22.004Z,100.00
2022-12-19T17:31:49.011Z,100.00
2022-12-19T17:34:33.606Z,100.00
2022-12-19T17:37:03.727Z,100.00
2022-12-19T17:39:32.457Z,100.00
2022-12-19T17:42:06.933Z,100.00
2022-12-19T17:44:34.507Z,100.00
2022-12-19T17:47:01.545Z,100.00
2022-12-19T17:49:31.856Z,100.00
2022-12-19T17:52:00.283Z,100.00
2022-12-19T17:54:27.914Z,100.00
2022-12-19T17:56:55.589Z,100.00
2022-12-19T17:59:22.693Z,100.00
2022-12-19T18:01:50.004Z,100.00
2022-12-19T18:04:19.855Z,100.00
2022-12-19T18:06:47.132Z,100.00
2022-12-19T18:09:25.121Z,100.00
2022-12-19T18:11:53.093Z,100.00
2022-12-19T18:14:20.552Z,100.00
2022-12-19T18:16:50.394Z,100.00
2022-12-19T18:19:23.657Z,100.00
2022-12-19T18:21:50.729Z,100.00
2022-12-19T18:24:17.998Z,100.00
2022-12-19T18:26:45.335Z,100.00
2022-12-19T18:29:13.259Z,100.00
2022-12-19T18:31:46.568Z,100.00
2022-12-19T18:34:23.258Z,100.00
2022-12-19T18:36:51.337Z,100.00
2022-12-19T18:39:33.684Z,100.00
2022-12-19T18:42:00.612Z,100.00
2022-12-19T18:44:27.496Z,100.00
2022-12-19T18:46:54.604Z,100.00
2022-12-19T18:49:23.055Z,100.00
2022-12-19T18:51:50.135Z,100.00
2022-12-19T18:54:20.801Z,100.00
2022-12-19T18:56:48.481Z,100.00
2022-12-19T18:59:15.521Z,100.00
2022-12-19T19:01:46.553Z,100.00
2022-12-19T19:04:18.297Z,100.00
2022-12-19T19:06:51.474Z,100.00
2022-12-19T19:09:20.579Z,100.00
2022-12-19T19:11:47.999Z,100.00
2022-12-19T19:14:14.907Z,100.00
2022-12-19T19:16:42.025Z,100.00
2022-12-19T19:19:14.560Z,100.00
2022-12-19T19:21:42.930Z,100.00
2022-12-19T19:24:14.363Z,100.00
2022-12-19T19:26:41.311Z,100.00
2022-12-19T19:29:08.455Z,98.27
2022-12-19T19:31:40.970Z,100.00
2022-12-19T19:34:27.584Z,100.00
2022-12-19T19:36:57.265Z,100.00
2022-12-19T19:39:24.584Z,100.00
2022-12-19T19:41:51.575Z,100.00
2022-12-19T19:44:18.533Z,99.82
2022-12-19T19:46:46.299Z,98.71
2022-12-19T19:49:13.381Z,99.67
2022-12-19T19:51:40.442Z,99.10
2022-12-19T19:54:07.648Z,99.14
2022-12-19T19:56:34.667Z,99.91
2022-12-19T19:59:01.735Z,99.76
2022-12-19T20:01:28.845Z,98.35
2022-12-19T20:03:56.211Z,100.00
2022-12-19T20:06:23.444Z,100.00
2022-12-19T20:08:50.694Z,98.12
2022-12-19T20:11:17.617Z,97.98
2022-12-19T20:13:44.646Z,98.61
2022-12-19T20:16:15.725Z,97.21
2022-12-19T20:18:47.423Z,100.00
2022-12-19T20:21:14.396Z,100.00
2022-12-19T20:23:43.593Z,100.00
2022-12-19T20:26:13.299Z,98.98
2022-12-19T20:28:47.747Z,98.25
2022-12-19T20:31:16.134Z,97.29
2022-12-19T20:33:43.100Z,98.55
2022-12-19T20:36:11.734Z,97.80
2022-12-19T20:38:39.056Z,99.42
2022-12-19T20:41:06.496Z,97.74
2022-12-19T20:43:33.961Z,98.43
2022-12-19T20:46:06.565Z,99.89
2022-12-19T20:48:33.911Z,99.39
2022-12-19T20:51:02.641Z,95.25
2022-12-19T20:53:30.336Z,97.62
2022-12-19T20:55:59.288Z,98.45
2022-12-19T20:58:27.779Z,95.85
2022-12-19T21:01:03.010Z,97.80
2022-12-19T21:03:30.723Z,98.12
2022-12-19T21:05:58.554Z,95.76
2022-12-19T21:08:26.512Z,98.64
2022-12-19T21:10:53.999Z,98.47
2022-12-19T21:13:22.900Z,97.19
2022-12-19T21:15:57.354Z,95.79
2022-12-19T21:18:25.717Z,98.84
2022-12-19T21:20:53.050Z,99.07
2022-12-19T21:23:20.257Z,100.00
2022-12-19T21:25:47.162Z,99.72
2022-12-19T21:28:14.487Z,99.25
2022-12-19T21:30:42.306Z,97.71
2022-12-19T21:33:09.598Z,98.81
2022-12-19T21:35:38.199Z,97.06
2022-12-19T21:38:05.169Z,98.26
2022-12-19T21:40:32.061Z,98.86
2022-12-19T21:42:59.104Z,97.08
2022-12-19T21:45:26.024Z,98.36
2022-12-19T21:47:52.954Z,96.00
2022-12-19T21:50:19.972Z,97.75
2022-12-19T21:52:50.166Z,96.15
2022-12-19T21:55:21.305Z,97.37
2022-12-19T21:57:48.229Z,96.63
2022-12-19T22:00:15.529Z,95.24
2022-12-19T22:03:01.570Z,98.17
2022-12-19T22:05:29.459Z,97.69
2022-12-19T22:07:56.333Z,96.76
2022-12-19T22:10:23.452Z,97.35
2022-12-19T22:12:50.345Z,97.88
2022-12-19T22:15:17.329Z,97.61
2022-12-19T22:17:44.350Z,94.61
2022-12-19T22:20:11.305Z,97.43
2022-12-19T22:22:38.254Z,97.47
2022-12-19T22:25:05.678Z,98.59
2022-12-19T22:27:32.566Z,99.02
2022-12-19T22:30:02.236Z,97.42
2022-12-19T22:32:33.534Z,97.86
2022-12-19T22:35:00.427Z,97.41
2022-12-19T22:37:27.450Z,96.84
2022-12-19T22:39:54.399Z,97.70
2022-12-19T22:42:21.352Z,96.00
2022-12-19T22:44:48.238Z,96.47
2022-12-19T22:47:15.096Z,95.34
2022-12-19T22:49:42.088Z,97.37
2022-12-19T22:52:08.972Z,93.57
2022-12-19T22:54:35.853Z,95.94
2022-12-19T22:57:02.792Z,95.11
2022-12-19T22:59:29.710Z,94.52
2022-12-19T23:01:56.773Z,94.48
2022-12-19T23:04:23.891Z,95.33
2022-12-19T23:06:51.060Z,96.87
2022-12-19T23:09:19.237Z,96.65
2022-12-19T23:11:49.266Z,96.45
2022-12-19T23:14:18.030Z,95.35
2022-12-19T23:16:45.401Z,96.74
2022-12-19T23:19:14.681Z,94.88
2022-12-19T23:21:41.783Z,95.93
2022-12-19T23:24:08.796Z,95.81
2022-12-19T23:26:37.826Z,93.23
2022-12-19T23:29:10.602Z,92.53
2022-12-19T23:31:41.034Z,95.42
2022-12-19T23:34:08.465Z,95.92
2022-12-19T23:39:22.223Z,91.85
2022-12-19T23:41:49.148Z,96.56
2022-12-19T23:44:16.180Z,93.86
2022-12-19T23:46:43.140Z,94.17
2022-12-19T23:49:10.032Z,96.94
2022-12-19T23:51:37.046Z,97.21
2022-12-19T23:54:04.411Z,98.03
2022-12-19T23:56:33.794Z,97.17
2022-12-19T23:59:01.066Z,94.09
